PRIVATE WETTERSTATION BILLIGHEIM-ALLFELD                       ZURCK
Wetterdaten: Mittwoch, 23.04.2014
Datum Zeit Temp. A. Temp. A. min Temp. A. max Feuchte A. Luftdruck Regen Wind Richtung Richtung Sonnenschein ET Solar Taupunkt Windchill Windben Empfang
23.04.2014 00:00 8,7 C 8,7 C 8,7 C 84 % 1015,5 hPa 0,0 l/m 0,0 km/h (0 Bft) N-NW 333 0 min 0,000 mm 0 W/m 6,2 C 8,7 C 1,6 km/h (1 Bft) 100 %
23.04.2014 00:10 8,5 C 8,5 C 8,7 C 84 % 1015,6 hPa 0,0 l/m 0,0 km/h (0 Bft) N-NW 333 0 min 0,000 mm 0 W/m 6,0 C 8,5 C 1,6 km/h (1 Bft) 100 %
23.04.2014 00:20 8,4 C 8,4 C 8,5 C 84 % 1015,6 hPa 0,0 l/m 0,0 km/h (0 Bft) N-NW 333 0 min 0,000 mm 0 W/m 5,9 C 8,4 C 1,6 km/h (1 Bft) 100 %
23.04.2014 00:30 8,3 C 8,3 C 8,4 C 85 % 1015,7 hPa 0,0 l/m 0,0 km/h (0 Bft) N-NW 333 0 min 0,000 mm 0 W/m 5,9 C 8,3 C 0,0 km/h (0 Bft) 100 %
23.04.2014 00:40 8,1 C 8,1 C 8,3 C 85 % 1015,8 hPa 0,0 l/m 0,0 km/h (0 Bft) N-NW 333 0 min 0,000 mm 0 W/m 5,7 C 8,1 C 1,6 km/h (1 Bft) 100 %
23.04.2014 00:50 8,0 C 8,0 C 8,1 C 85 % 1015,9 hPa 0,0 l/m 0,0 km/h (0 Bft) N-NW 333 0 min 0,000 mm 0 W/m 5,6 C 8,0 C 1,6 km/h (1 Bft) 100 %
23.04.2014 01:00 7,8 C 7,8 C 8,0 C 86 % 1016,0 hPa 0,0 l/m 0,0 km/h (0 Bft) N-NW 333 0 min 0,000 mm 0 W/m 5,6 C 7,8 C 1,6 km/h (1 Bft) 99 %
23.04.2014 01:10 7,7 C 7,7 C 7,8 C 86 % 1016,0 hPa 0,0 l/m 0,0 km/h (0 Bft) N-NW 333 0 min 0,000 mm 0 W/m 5,5 C 7,7 C 1,6 km/h (1 Bft) 100 %
23.04.2014 01:20 7,6 C 7,6 C 7,7 C 86 % 1016,2 hPa 0,0 l/m 0,0 km/h (0 Bft) N-NW 333 0 min 0,000 mm 0 W/m 5,4 C 7,6 C 1,6 km/h (1 Bft) 100 %
23.04.2014 01:30 7,4 C 7,4 C 7,6 C 86 % 1016,3 hPa 0,0 l/m 0,0 km/h (0 Bft) N-NW 333 0 min 0,000 mm 0 W/m 5,2 C 7,4 C 0,0 km/h (0 Bft) 100 %
23.04.2014 01:40 7,2 C 7,2 C 7,4 C 86 % 1016,3 hPa 0,0 l/m 0,0 km/h (0 Bft) N 0 0 min 0,000 mm 0 W/m 5,0 C 7,2 C 0,0 km/h (0 Bft) 98 %
23.04.2014 01:50 7,1 C 7,1 C 7,2 C 86 % 1016,4 hPa 0,0 l/m 0,0 km/h (0 Bft) N-NW 337 0 min 0,000 mm 0 W/m 4,9 C 7,1 C 1,6 km/h (1 Bft) 98 %
23.04.2014 02:00 6,9 C 6,9 C 7,1 C 86 % 1016,3 hPa 0,0 l/m 0,0 km/h (0 Bft) N-NW 337 0 min 0,000 mm 0 W/m 4,7 C 6,9 C 1,6 km/h (1 Bft) 98 %
23.04.2014 02:10 6,8 C 6,8 C 6,9 C 87 % 1016,3 hPa 0,0 l/m 0,0 km/h (0 Bft) N-NW 337 0 min 0,000 mm 0 W/m 4,8 C 6,8 C 1,6 km/h (1 Bft) 97 %
23.04.2014 02:20 6,7 C 6,7 C 6,8 C 87 % 1016,4 hPa 0,0 l/m 0,0 km/h (0 Bft) N-NW 337 0 min 0,000 mm 0 W/m 4,7 C 6,7 C 1,6 km/h (1 Bft) 98 %
23.04.2014 02:30 6,6 C 6,6 C 6,7 C 87 % 1016,4 hPa 0,0 l/m 0,0 km/h (0 Bft) N 0 0 min 0,000 mm 0 W/m 4,6 C 6,6 C 0,0 km/h (0 Bft) 98 %
23.04.2014 02:40 6,5 C 6,5 C 6,6 C 87 % 1016,4 hPa 0,0 l/m 0,0 km/h (0 Bft) N 0 0 min 0,000 mm 0 W/m 4,5 C 6,5 C 0,0 km/h (0 Bft) 98 %
23.04.2014 02:50 6,4 C 6,4 C 6,5 C 87 % 1016,5 hPa 0,0 l/m 0,0 km/h (0 Bft) N 0 0 min 0,000 mm 0 W/m 4,4 C 6,4 C 0,0 km/h (0 Bft) 97 %
23.04.2014 03:00 6,3 C 6,3 C 6,4 C 87 % 1016,5 hPa 0,0 l/m 0,0 km/h (0 Bft) N 0 0 min 0,000 mm 0 W/m 4,3 C 6,3 C 0,0 km/h (0 Bft) 97 %
23.04.2014 03:10 6,2 C 6,2 C 6,3 C 87 % 1016,5 hPa 0,0 l/m 0,0 km/h (0 Bft) N 0 0 min 0,000 mm 0 W/m 4,2 C 6,2 C 0,0 km/h (0 Bft) 98 %
23.04.2014 03:20 6,1 C 6,1 C 6,2 C 87 % 1016,7 hPa 0,0 l/m 0,0 km/h (0 Bft) N 0 0 min 0,000 mm 0 W/m 4,1 C 6,1 C 0,0 km/h (0 Bft) 98 %
23.04.2014 03:30 6,1 C 6,1 C 6,1 C 87 % 1016,8 hPa 0,0 l/m 0,0 km/h (0 Bft) N 0 0 min 0,000 mm 0 W/m 4,1 C 6,1 C 0,0 km/h (0 Bft) 97 %
23.04.2014 03:40 5,9 C 5,9 C 6,1 C 87 % 1016,8 hPa 0,0 l/m 0,0 km/h (0 Bft) N 0 0 min 0,000 mm 0 W/m 3,9 C 5,9 C 0,0 km/h (0 Bft) 98 %
23.04.2014 03:50 5,8 C 5,8 C 5,9 C 87 % 1016,8 hPa 0,0 l/m 0,0 km/h (0 Bft) N 0 0 min 0,000 mm 0 W/m 3,8 C 5,8 C 0,0 km/h (0 Bft) 97 %
23.04.2014 04:00 5,7 C 5,7 C 5,8 C 87 % 1016,9 hPa 0,0 l/m 0,0 km/h (0 Bft) N 0 0 min 0,000 mm 0 W/m 3,7 C 5,7 C 0,0 km/h (0 Bft) 98 %
23.04.2014 04:10 5,7 C 5,7 C 5,7 C 87 % 1017,0 hPa 0,0 l/m 0,0 km/h (0 Bft) N 0 0 min 0,000 mm 0 W/m 3,7 C 5,7 C 0,0 km/h (0 Bft) 97 %
23.04.2014 04:20 5,8 C 5,7 C 5,8 C 87 % 1017,1 hPa 0,0 l/m 0,0 km/h (0 Bft) N-NW 337 0 min 0,000 mm 0 W/m 3,8 C 5,8 C 3,2 km/h (1 Bft) 100 %
23.04.2014 04:30 5,9 C 5,8 C 5,9 C 87 % 1017,2 hPa 0,0 l/m 0,0 km/h (0 Bft) N-NW 337 0 min 0,000 mm 0 W/m 3,9 C 5,9 C 3,2 km/h (1 Bft) 100 %
23.04.2014 04:40 5,9 C 5,8 C 5,9 C 87 % 1017,3 hPa 0,0 l/m 0,0 km/h (0 Bft) N-NW 337 0 min 0,000 mm 0 W/m 3,9 C 5,9 C 3,2 km/h (1 Bft) 100 %
23.04.2014 04:50 5,7 C 5,7 C 5,9 C 87 % 1017,3 hPa 0,0 l/m 0,0 km/h (0 Bft) N-NW 337 0 min 0,000 mm 0 W/m 3,7 C 5,7 C 3,2 km/h (1 Bft) 100 %
23.04.2014 05:00 5,6 C 5,6 C 5,7 C 87 % 1017,3 hPa 0,0 l/m 0,0 km/h (0 Bft) N-NW 337 0 min 0,000 mm 0 W/m 3,6 C 5,6 C 1,6 km/h (1 Bft) 100 %
23.04.2014 05:10 5,4 C 5,4 C 5,6 C 87 % 1017,4 hPa 0,0 l/m 0,0 km/h (0 Bft) N-NW 337 0 min 0,000 mm 0 W/m 3,4 C 5,4 C 1,6 km/h (1 Bft) 99 %
23.04.2014 05:20 5,3 C 5,3 C 5,4 C 87 % 1017,5 hPa 0,0 l/m 0,0 km/h (0 Bft) N 0 0 min 0,000 mm 0 W/m 3,3 C 5,3 C 0,0 km/h (0 Bft) 89 %
23.04.2014 05:30 5,2 C 5,2 C 5,3 C 87 % 1017,5 hPa 0,0 l/m 0,0 km/h (0 Bft) N 0 0 min 0,000 mm 0 W/m 3,2 C 5,2 C 0,0 km/h (0 Bft) 100 %
23.04.2014 05:40 5,1 C 5,1 C 5,2 C 87 % 1017,6 hPa 0,0 l/m 0,0 km/h (0 Bft) N 0 0 min 0,000 mm 0 W/m 3,1 C 5,1 C 0,0 km/h (0 Bft) 100 %
23.04.2014 05:50 5,1 C 5,1 C 5,1 C 87 % 1017,5 hPa 0,0 l/m 0,0 km/h (0 Bft) N-NW 337 0 min 0,000 mm 0 W/m 3,1 C 5,1 C 1,6 km/h (1 Bft) 100 %
23.04.2014 06:00 5,0 C 5,0 C 5,1 C 87 % 1017,6 hPa 0,0 l/m 0,0 km/h (0 Bft) N-NW 337 0 min 0,000 mm 0 W/m 3,0 C 5,0 C 3,2 km/h (1 Bft) 100 %
23.04.2014 06:10 4,9 C 4,9 C 5,0 C 87 % 1017,6 hPa 0,0 l/m 0,0 km/h (0 Bft) N-NW 337 0 min 0,000 mm 0 W/m 2,9 C 4,9 C 4,8 km/h (1 Bft) 99 %
23.04.2014 06:20 5,1 C 4,9 C 5,1 C 87 % 1017,7 hPa 0,0 l/m 0,0 km/h (0 Bft) N 360 0 min 0,000 mm 5 W/m 3,1 C 5,1 C 4,8 km/h (1 Bft) 100 %
23.04.2014 06:30 5,1 C 5,1 C 5,2 C 87 % 1017,9 hPa 0,0 l/m 0,0 km/h (0 Bft) N 360 0 min 0,000 mm 9 W/m 3,1 C 5,1 C 4,8 km/h (1 Bft) 100 %
23.04.2014 06:40 5,1 C 5,1 C 5,2 C 87 % 1017,9 hPa 0,0 l/m 0,0 km/h (0 Bft) N 360 0 min 0,000 mm 12 W/m 3,1 C 5,1 C 4,8 km/h (1 Bft) 100 %
23.04.2014 06:50 5,0 C 5,0 C 5,1 C 87 % 1018,0 hPa 0,0 l/m 0,0 km/h (0 Bft) N-NW 337 0 min 0,000 mm 19 W/m 3,0 C 5,0 C 3,2 km/h (1 Bft) 100 %
23.04.2014 07:00 5,1 C 5,0 C 5,1 C 87 % 1018,0 hPa 0,0 l/m 0,0 km/h (0 Bft) N 360 0 min 0,000 mm 23 W/m 3,1 C 5,1 C 3,2 km/h (1 Bft) 100 %
23.04.2014 07:10 5,3 C 5,1 C 5,3 C 87 % 1018,1 hPa 0,0 l/m 0,0 km/h (0 Bft) N 360 0 min 0,000 mm 35 W/m 3,3 C 5,3 C 1,6 km/h (1 Bft) 100 %
23.04.2014 07:20 5,7 C 5,3 C 5,7 C 87 % 1018,1 hPa 0,0 l/m 0,0 km/h (0 Bft) N 360 0 min 0,000 mm 37 W/m 3,7 C 5,7 C 1,6 km/h (1 Bft) 100 %
23.04.2014 07:30 6,1 C 5,7 C 6,1 C 87 % 1018,1 hPa 0,0 l/m 0,0 km/h (0 Bft) N 360 0 min 0,000 mm 46 W/m 4,1 C 6,1 C 1,6 km/h (1 Bft) 100 %
23.04.2014 07:40 6,1 C 6,1 C 6,1 C 87 % 1018,2 hPa 0,0 l/m 0,0 km/h (0 Bft) N 360 0 min 0,000 mm 49 W/m 4,1 C 6,1 C 1,6 km/h (1 Bft) 100 %
23.04.2014 07:50 6,1 C 6,1 C 6,2 C 87 % 1018,3 hPa 0,0 l/m 0,0 km/h (0 Bft) W 270 0 min 0,000 mm 46 W/m 4,1 C 6,1 C 1,6 km/h (1 Bft) 100 %
23.04.2014 08:00 6,2 C 6,1 C 6,2 C 87 % 1018,4 hPa 0,0 l/m 0,0 km/h (0 Bft) W 270 0 min 0,025 mm 33 W/m 4,2 C 6,2 C 1,6 km/h (1 Bft) 99 %
23.04.2014 08:10 6,4 C 6,2 C 6,4 C 87 % 1018,5 hPa 0,0 l/m 0,0 km/h (0 Bft) NO 45 0 min 0,000 mm 42 W/m 4,4 C 6,4 C 1,6 km/h (1 Bft) 100 %
23.04.2014 08:20 6,7 C 6,4 C 6,7 C 87 % 1018,5 hPa 0,0 l/m 0,0 km/h (0 Bft) N 360 0 min 0,000 mm 91 W/m 4,7 C 6,7 C 3,2 km/h (1 Bft) 100 %
23.04.2014 08:30 7,2 C 6,7 C 7,2 C 87 % 1018,5 hPa 0,0 l/m 0,0 km/h (0 Bft) N-NO 22 10 min 0,000 mm 274 W/m 5,2 C 7,2 C 3,2 km/h (1 Bft) 100 %
23.04.2014 08:40 8,2 C 7,2 C 8,2 C 87 % 1018,5 hPa 0,0 l/m 0,0 km/h (0 Bft) N-NO 22 10 min 0,000 mm 304 W/m 6,2 C 8,2 C 1,6 km/h (1 Bft) 100 %
23.04.2014 08:50 9,4 C 8,2 C 9,4 C 87 % 1018,5 hPa 0,0 l/m 0,0 km/h (0 Bft) N 0 10 min 0,000 mm 329 W/m 7,3 C 9,4 C 0,0 km/h (0 Bft) 100 %
23.04.2014 09:00 10,4 C 9,4 C 10,4 C 87 % 1018,5 hPa 0,0 l/m 0,0 km/h (0 Bft) N 0 10 min 0,102 mm 352 W/m 8,3 C 10,4 C 0,0 km/h (0 Bft) 100 %
23.04.2014 09:10 11,7 C 10,4 C 11,7 C 87 % 1018,6 hPa 0,0 l/m 0,0 km/h (0 Bft) N 360 10 min 0,000 mm 427 W/m 9,6 C 11,7 C 1,6 km/h (1 Bft) 100 %
23.04.2014 09:20 13,2 C 11,7 C 13,2 C 82 % 1018,6 hPa 0,0 l/m 1,6 km/h (1 Bft) S-SW 202 10 min 0,000 mm 466 W/m 10,2 C 13,2 C 6,4 km/h (2 Bft) 100 %
23.04.2014 09:30 13,8 C 13,2 C 13,8 C 76 % 1018,5 hPa 0,0 l/m 1,6 km/h (1 Bft) S-SW 202 10 min 0,000 mm 497 W/m 9,6 C 13,8 C 6,4 km/h (2 Bft) 100 %
23.04.2014 09:40 14,2 C 13,8 C 14,2 C 78 % 1018,7 hPa 0,0 l/m 0,0 km/h (0 Bft) S-SW 202 10 min 0,000 mm 559 W/m 10,4 C 14,2 C 4,8 km/h (1 Bft) 100 %
23.04.2014 09:50 14,8 C 14,2 C 14,8 C 76 % 1018,7 hPa 0,0 l/m 0,0 km/h (0 Bft) SO 135 10 min 0,000 mm 584 W/m 10,6 C 14,8 C 1,6 km/h (1 Bft) 100 %
23.04.2014 10:00 15,3 C 14,9 C 15,3 C 73 % 1018,7 hPa 0,0 l/m 0,0 km/h (0 Bft) SO 135 10 min 0,229 mm 561 W/m 10,5 C 15,3 C 1,6 km/h (1 Bft) 100 %
23.04.2014 10:10 16,3 C 14,9 C 16,3 C 72 % 1018,7 hPa 0,0 l/m 0,8 km/h (0 Bft) SW 225 10 min 0,000 mm 617 W/m 11,2 C 16,3 C 4,8 km/h (1 Bft) 99 %
23.04.2014 10:20 17,1 C 16,3 C 17,1 C 66 % 1018,7 hPa 0,0 l/m 0,2 km/h (0 Bft) SW 227 10 min 0,000 mm 489 W/m 10,7 C 17,1 C 4,8 km/h (1 Bft) 100 %
23.04.2014 10:30 17,7 C 17,1 C 17,7 C 63 % 1018,6 hPa 0,0 l/m 0,2 km/h (0 Bft) SW 215 10 min 0,000 mm 457 W/m 10,6 C 17,7 C 4,8 km/h (1 Bft) 100 %
23.04.2014 10:40 18,1 C 17,7 C 18,2 C 61 % 1018,7 hPa 0,0 l/m 1,0 km/h (0 Bft) W 277 10 min 0,000 mm 487 W/m 10,5 C 18,1 C 6,4 km/h (2 Bft) 99 %
23.04.2014 10:50 18,4 C 18,1 C 18,4 C 63 % 1018,7 hPa 0,0 l/m 0,9 km/h (0 Bft) W-NW 296 10 min 0,000 mm 612 W/m 11,2 C 18,4 C 4,8 km/h (1 Bft) 99 %
23.04.2014 11:00 18,8 C 18,4 C 18,8 C 60 % 1018,7 hPa 0,0 l/m 0,3 km/h (0 Bft) W 277 10 min 0,304 mm 585 W/m 10,9 C 18,8 C 4,8 km/h (1 Bft) 98 %
23.04.2014 11:10 19,5 C 18,8 C 19,5 C 57 % 1018,7 hPa 0,0 l/m 0,0 km/h (0 Bft) W 270 10 min 0,000 mm 682 W/m 10,8 C 19,5 C 1,6 km/h (1 Bft) 100 %
23.04.2014 11:20 19,6 C 19,5 C 19,6 C 55 % 1018,7 hPa 0,0 l/m 0,0 km/h (0 Bft) N-NW 337 10 min 0,000 mm 617 W/m 10,3 C 19,6 C 4,8 km/h (1 Bft) 100 %
23.04.2014 11:30 19,8 C 19,6 C 19,8 C 55 % 1018,7 hPa 0,0 l/m 0,0 km/h (0 Bft) N 360 10 min 0,000 mm 729 W/m 10,5 C 19,8 C 3,2 km/h (1 Bft) 100 %
23.04.2014 11:40 20,2 C 19,8 C 20,2 C 52 % 1018,6 hPa 0,0 l/m 1,6 km/h (1 Bft) SO 135 10 min 0,000 mm 728 W/m 10,0 C 20,2 C 6,4 km/h (2 Bft) 100 %
23.04.2014 11:50 20,1 C 20,1 C 20,2 C 52 % 1018,6 hPa 0,0 l/m 1,6 km/h (1 Bft) O-SO 112 10 min 0,000 mm 737 W/m 9,9 C 20,1 C 9,7 km/h (2 Bft) 100 %
23.04.2014 12:00 19,9 C 19,9 C 20,1 C 52 % 1018,6 hPa 0,0 l/m 0,0 km/h (0 Bft) NO 45 10 min 0,356 mm 791 W/m 9,7 C 19,9 C 8,0 km/h (2 Bft) 100 %
23.04.2014 12:10 20,3 C 20,0 C 20,3 C 51 % 1018,5 hPa 0,0 l/m 1,6 km/h (1 Bft) NW 315 10 min 0,000 mm 846 W/m 9,8 C 20,3 C 8,0 km/h (2 Bft) 100 %
23.04.2014 12:20 20,3 C 20,3 C 20,4 C 49 % 1018,5 hPa 0,0 l/m 1,6 km/h (1 Bft) NW 315 10 min 0,000 mm 860 W/m 9,2 C 20,3 C 6,4 km/h (2 Bft) 100 %
23.04.2014 12:30 20,2 C 20,2 C 20,3 C 50 % 1018,3 hPa 0,0 l/m 3,2 km/h (1 Bft) NO 45 10 min 0,000 mm 888 W/m 9,4 C 20,2 C 11,3 km/h (2 Bft) 100 %
23.04.2014 12:40 20,1 C 20,1 C 20,2 C 53 % 1018,4 hPa 0,0 l/m 0,0 km/h (0 Bft) O 90 10 min 0,000 mm 900 W/m 10,2 C 20,1 C 6,4 km/h (2 Bft) 100 %
23.04.2014 12:50 20,5 C 20,0 C 20,5 C 49 % 1018,2 hPa 0,0 l/m 1,6 km/h (1 Bft) SO 135 10 min 0,000 mm 925 W/m 9,4 C 20,5 C 11,3 km/h (2 Bft) 100 %
23.04.2014 13:00 20,4 C 20,4 C 20,8 C 48 % 1018,2 hPa 0,0 l/m 3,2 km/h (1 Bft) O-SO 112 10 min 0,356 mm 911 W/m 9,0 C 20,4 C 9,7 km/h (2 Bft) 100 %
23.04.2014 13:10 20,1 C 20,1 C 20,4 C 49 % 1018,0 hPa 0,0 l/m 1,6 km/h (1 Bft) SO 135 10 min 0,000 mm 923 W/m 9,0 C 20,1 C 16,1 km/h (3 Bft) 100 %
23.04.2014 13:20 20,0 C 19,9 C 20,1 C 48 % 1017,9 hPa 0,0 l/m 1,6 km/h (1 Bft) S-SO 157 10 min 0,000 mm 875 W/m 8,7 C 20,0 C 9,7 km/h (2 Bft) 100 %
23.04.2014 13:30 20,7 C 20,1 C 20,7 C 49 % 1017,9 hPa 0,0 l/m 0,0 km/h (0 Bft) SW 225 10 min 0,000 mm 867 W/m 9,6 C 20,7 C 8,0 km/h (2 Bft) 100 %
23.04.2014 13:40 21,5 C 20,8 C 21,5 C 45 % 1018,0 hPa 0,0 l/m 1,6 km/h (1 Bft) N 360 10 min 0,000 mm 891 W/m 9,1 C 21,5 C 11,3 km/h (2 Bft) 100 %
23.04.2014 13:50 21,7 C 21,6 C 21,8 C 44 % 1017,9 hPa 0,0 l/m 0,0 km/h (0 Bft) O-SO 112 10 min 0,000 mm 912 W/m 8,9 C 21,7 C 6,4 km/h (2 Bft) 100 %
23.04.2014 14:00 21,0 C 21,0 C 21,7 C 44 % 1017,9 hPa 0,0 l/m 1,6 km/h (1 Bft) N-NW 337 10 min 0,356 mm 206 W/m 8,3 C 21,0 C 6,4 km/h (2 Bft) 88 %
23.04.2014 14:10 20,4 C 20,4 C 21,7 C 46 % 1017,8 hPa 0,0 l/m 1,6 km/h (1 Bft) NW 307 10 min 0,000 mm 155 W/m 8,4 C 20,4 C 8,0 km/h (2 Bft) 99 %
23.04.2014 14:20 20,1 C 20,1 C 20,4 C 47 % 1017,7 hPa 0,0 l/m 1,4 km/h (1 Bft) W-NW 302 10 min 0,000 mm 188 W/m 8,4 C 20,1 C 8,0 km/h (2 Bft) 100 %
23.04.2014 14:30 20,6 C 20,0 C 20,6 C 45 % 1017,7 hPa 0,0 l/m 0,8 km/h (0 Bft) N-NO 19 10 min 0,000 mm 858 W/m 8,2 C 20,6 C 9,7 km/h (2 Bft) 99 %
23.04.2014 14:40 21,0 C 20,6 C 21,1 C 42 % 1017,8 hPa 0,0 l/m 0,6 km/h (0 Bft) N-NW 331 0 min 0,000 mm 134 W/m 7,6 C 21,0 C 8,0 km/h (2 Bft) 100 %
23.04.2014 14:50 20,6 C 20,6 C 21,0 C 46 % 1017,6 hPa 0,0 l/m 0,0 km/h (0 Bft) N-NW 337 10 min 0,000 mm 153 W/m 8,6 C 20,6 C 1,6 km/h (1 Bft) 100 %
23.04.2014 15:00 20,9 C 20,6 C 20,9 C 45 % 1017,3 hPa 0,0 l/m 1,6 km/h (1 Bft) N-NW 337 10 min 0,254 mm 779 W/m 8,5 C 20,9 C 11,3 km/h (2 Bft) 100 %
23.04.2014 15:10 21,7 C 20,9 C 21,7 C 44 % 1017,3 hPa 0,0 l/m 1,6 km/h (1 Bft) NW 315 10 min 0,000 mm 807 W/m 8,9 C 21,7 C 9,7 km/h (2 Bft) 100 %
23.04.2014 15:20 21,8 C 21,7 C 21,9 C 42 % 1017,2 hPa 0,0 l/m 1,6 km/h (1 Bft) O-SO 112 10 min 0,000 mm 803 W/m 8,3 C 21,8 C 6,4 km/h (2 Bft) 100 %
23.04.2014 15:30 21,4 C 21,4 C 21,8 C 44 % 1017,2 hPa 0,0 l/m 0,0 km/h (0 Bft) NO 45 10 min 0,000 mm 260 W/m 8,6 C 21,4 C 3,2 km/h (1 Bft) 100 %
23.04.2014 15:40 21,1 C 21,1 C 21,4 C 44 % 1017,1 hPa 0,0 l/m 0,0 km/h (0 Bft) NO 45 10 min 0,000 mm 752 W/m 8,4 C 21,1 C 1,6 km/h (1 Bft) 100 %
23.04.2014 15:50 21,7 C 21,1 C 21,7 C 40 % 1017,0 hPa 0,0 l/m 1,6 km/h (1 Bft) NW 315 10 min 0,000 mm 742 W/m 7,5 C 21,7 C 8,0 km/h (2 Bft) 100 %
23.04.2014 16:00 22,4 C 21,7 C 22,4 C 41 % 1017,0 hPa 0,0 l/m 1,6 km/h (1 Bft) NW 315 10 min 0,330 mm 721 W/m 8,5 C 22,4 C 6,4 km/h (2 Bft) 100 %
23.04.2014 16:10 22,5 C 22,4 C 22,7 C 43 % 1016,9 hPa 0,0 l/m 0,0 km/h (0 Bft) O-SO 112 10 min 0,000 mm 700 W/m 9,3 C 22,5 C 4,8 km/h (1 Bft) 100 %
23.04.2014 16:20 21,8 C 21,8 C 22,5 C 42 % 1016,9 hPa 0,0 l/m 0,0 km/h (0 Bft) O 90 0 min 0,000 mm 116 W/m 8,3 C 21,8 C 1,6 km/h (1 Bft) 100 %
23.04.2014 16:30 21,2 C 21,2 C 21,8 C 46 % 1016,9 hPa 0,0 l/m 0,0 km/h (0 Bft) O 90 0 min 0,000 mm 102 W/m 9,1 C 21,2 C 1,6 km/h (1 Bft) 100 %
23.04.2014 16:40 21,0 C 20,9 C 21,2 C 43 % 1016,7 hPa 0,0 l/m 0,0 km/h (0 Bft) SW 225 10 min 0,000 mm 621 W/m 7,9 C 21,0 C 1,6 km/h (1 Bft) 100 %
23.04.2014 16:50 21,6 C 21,0 C 21,6 C 41 % 1016,5 hPa 0,0 l/m 1,6 km/h (1 Bft) W-SW 247 10 min 0,000 mm 598 W/m 7,8 C 21,6 C 6,4 km/h (2 Bft) 100 %
23.04.2014 17:00 22,1 C 21,6 C 22,1 C 42 % 1016,7 hPa 0,0 l/m 0,0 km/h (0 Bft) W-SW 247 10 min 0,203 mm 587 W/m 8,6 C 22,1 C 4,8 km/h (1 Bft) 100 %
23.04.2014 17:10 22,5 C 22,1 C 22,5 C 39 % 1016,7 hPa 0,0 l/m 0,0 km/h (0 Bft) NW 315 10 min 0,000 mm 585 W/m 7,8 C 22,5 C 4,8 km/h (1 Bft) 100 %
23.04.2014 17:20 22,6 C 22,5 C 22,6 C 38 % 1016,5 hPa 0,0 l/m 1,6 km/h (1 Bft) NW 315 10 min 0,000 mm 443 W/m 7,6 C 22,6 C 9,7 km/h (2 Bft) 100 %
23.04.2014 17:30 22,7 C 22,6 C 22,7 C 39 % 1016,5 hPa 0,0 l/m 0,0 km/h (0 Bft) SO 135 10 min 0,000 mm 186 W/m 8,0 C 22,7 C 6,4 km/h (2 Bft) 100 %
23.04.2014 17:40 22,6 C 22,6 C 22,7 C 40 % 1016,4 hPa 0,0 l/m 1,6 km/h (1 Bft) W 270 0 min 0,000 mm 132 W/m 8,3 C 22,6 C 8,0 km/h (2 Bft) 100 %
23.04.2014 17:50 22,2 C 22,2 C 22,6 C 39 % 1016,4 hPa 0,0 l/m 1,6 km/h (1 Bft) SO 135 0 min 0,000 mm 113 W/m 7,6 C 22,2 C 9,7 km/h (2 Bft) 100 %
23.04.2014 18:00 21,9 C 21,9 C 22,2 C 39 % 1016,5 hPa 0,0 l/m 0,0 km/h (0 Bft) O 90 0 min 0,127 mm 98 W/m 7,3 C 21,9 C 6,4 km/h (2 Bft) 100 %
23.04.2014 18:10 21,5 C 21,5 C 21,9 C 41 % 1016,5 hPa 0,0 l/m 1,6 km/h (1 Bft) SO 135 0 min 0,000 mm 72 W/m 7,7 C 21,5 C 8,0 km/h (2 Bft) 100 %
23.04.2014 18:20 21,2 C 21,2 C 21,5 C 41 % 1016,4 hPa 0,0 l/m 1,6 km/h (1 Bft) O-SO 112 0 min 0,000 mm 70 W/m 7,4 C 21,2 C 9,7 km/h (2 Bft) 100 %
23.04.2014 18:30 21,0 C 21,0 C 21,2 C 42 % 1016,4 hPa 0,0 l/m 1,6 km/h (1 Bft) SO 135 0 min 0,000 mm 69 W/m 7,6 C 21,0 C 8,0 km/h (2 Bft) 100 %
23.04.2014 18:40 20,9 C 20,9 C 21,0 C 41 % 1016,4 hPa 0,0 l/m 1,6 km/h (1 Bft) O-SO 112 0 min 0,000 mm 70 W/m 7,2 C 20,9 C 9,7 km/h (2 Bft) 100 %
23.04.2014 18:50 20,8 C 20,8 C 20,9 C 44 % 1016,4 hPa 0,0 l/m 0,0 km/h (0 Bft) O 90 0 min 0,000 mm 74 W/m 8,1 C 20,8 C 3,2 km/h (1 Bft) 100 %
23.04.2014 19:00 20,6 C 20,6 C 20,8 C 47 % 1016,4 hPa 0,0 l/m 0,0 km/h (0 Bft) S-SO 157 0 min 0,051 mm 63 W/m 8,9 C 20,6 C 1,6 km/h (1 Bft) 100 %
23.04.2014 19:10 20,2 C 20,2 C 20,6 C 47 % 1016,4 hPa 0,0 l/m 0,0 km/h (0 Bft) S-SO 157 0 min 0,000 mm 51 W/m 8,5 C 20,2 C 1,6 km/h (1 Bft) 100 %
23.04.2014 19:20 19,7 C 19,7 C 20,2 C 49 % 1016,5 hPa 0,0 l/m 0,0 km/h (0 Bft) N 0 0 min 0,000 mm 46 W/m 8,7 C 19,7 C 0,0 km/h (0 Bft) 100 %
23.04.2014 19:30 19,3 C 19,3 C 19,7 C 50 % 1016,4 hPa 0,0 l/m 0,0 km/h (0 Bft) N 0 0 min 0,000 mm 44 W/m 8,6 C 19,3 C 0,0 km/h (0 Bft) 100 %
23.04.2014 19:40 19,0 C 19,0 C 19,3 C 49 % 1016,3 hPa 0,0 l/m 0,0 km/h (0 Bft) N 0 0 min 0,000 mm 40 W/m 8,0 C 19,0 C 0,0 km/h (0 Bft) 100 %
23.04.2014 19:50 18,6 C 18,6 C 19,3 C 50 % 1016,6 hPa 0,0 l/m 0,0 km/h (0 Bft) S-SO 150 0 min 0,000 mm 28 W/m 8,0 C 18,6 C 0,0 km/h (0 Bft) 97 %
23.04.2014 20:00 18,2 C 18,2 C 18,6 C 49 % 1016,7 hPa 0,0 l/m 0,0 km/h (0 Bft) S 169 0 min 0,025 mm 21 W/m 7,3 C 18,2 C 1,6 km/h (1 Bft) 98 %
23.04.2014 20:10 17,8 C 17,8 C 18,2 C 49 % 1016,8 hPa 0,0 l/m 0,0 km/h (0 Bft) N 0 0 min 0,000 mm 21 W/m 6,9 C 17,8 C 0,0 km/h (0 Bft) 100 %
23.04.2014 20:20 17,5 C 17,5 C 17,8 C 50 % 1016,9 hPa 0,0 l/m 0,0 km/h (0 Bft) N 0 0 min 0,000 mm 14 W/m 7,0 C 17,5 C 0,0 km/h (0 Bft) 100 %
23.04.2014 20:30 17,2 C 17,2 C 17,5 C 51 % 1017,1 hPa 0,0 l/m 0,0 km/h (0 Bft) N 0 0 min 0,000 mm 7 W/m 7,0 C 17,2 C 0,0 km/h (0 Bft) 100 %
23.04.2014 20:40 16,8 C 16,8 C 17,2 C 51 % 1017,3 hPa 0,0 l/m 0,0 km/h (0 Bft) N 0 0 min 0,000 mm 0 W/m 6,6 C 16,8 C 0,0 km/h (0 Bft) 100 %
23.04.2014 20:50 16,4 C 16,4 C 16,8 C 51 % 1017,2 hPa 0,0 l/m 0,0 km/h (0 Bft) N 0 0 min 0,000 mm 0 W/m 6,2 C 16,4 C 0,0 km/h (0 Bft) 100 %
23.04.2014 21:00 16,1 C 16,1 C 16,4 C 51 % 1017,2 hPa 0,0 l/m 0,0 km/h (0 Bft) N 0 0 min 0,025 mm 0 W/m 6,0 C 16,1 C 0,0 km/h (0 Bft) 100 %
23.04.2014 21:10 15,7 C 15,7 C 16,1 C 53 % 1017,3 hPa 0,0 l/m 0,0 km/h (0 Bft) S 180 0 min 0,000 mm 0 W/m 6,1 C 15,7 C 3,2 km/h (1 Bft) 100 %
23.04.2014 21:20 15,1 C 15,1 C 15,7 C 53 % 1017,4 hPa 0,0 l/m 0,0 km/h (0 Bft) S 180 0 min 0,000 mm 0 W/m 5,6 C 15,1 C 1,6 km/h (1 Bft) 100 %
23.04.2014 21:30 14,8 C 14,8 C 15,2 C 54 % 1017,4 hPa 0,0 l/m 0,0 km/h (0 Bft) S 180 0 min 0,000 mm 0 W/m 5,6 C 14,8 C 1,6 km/h (1 Bft) 100 %
23.04.2014 21:40 14,4 C 14,4 C 14,8 C 55 % 1017,4 hPa 0,0 l/m 0,0 km/h (0 Bft) S 180 0 min 0,000 mm 0 W/m 5,5 C 14,4 C 1,6 km/h (1 Bft) 100 %
23.04.2014 21:50 14,1 C 14,1 C 14,4 C 58 % 1017,5 hPa 0,0 l/m 1,6 km/h (1 Bft) N-NO 22 0 min 0,000 mm 0 W/m 6,0 C 14,1 C 4,8 km/h (1 Bft) 100 %
23.04.2014 22:00 13,6 C 13,6 C 14,0 C 62 % 1017,7 hPa 0,0 l/m 1,6 km/h (1 Bft) N-NO 22 0 min 0,051 mm 0 W/m 6,5 C 13,6 C 4,8 km/h (1 Bft) 100 %
23.04.2014 22:10 13,0 C 13,0 C 13,5 C 65 % 1017,8 hPa 0,0 l/m 0,0 km/h (0 Bft) N-NO 22 0 min 0,000 mm 0 W/m 6,6 C 13,0 C 4,8 km/h (1 Bft) 100 %
23.04.2014 22:20 12,7 C 12,7 C 13,0 C 61 % 1017,8 hPa 0,0 l/m 0,0 km/h (0 Bft) N-NO 22 0 min 0,000 mm 0 W/m 5,4 C 12,7 C 1,6 km/h (1 Bft) 100 %
23.04.2014 22:30 12,4 C 12,4 C 12,7 C 62 % 1017,8 hPa 0,0 l/m 0,0 km/h (0 Bft) N-NO 22 0 min 0,000 mm 0 W/m 5,3 C 12,4 C 1,6 km/h (1 Bft) 100 %
23.04.2014 22:40 12,2 C 12,2 C 12,4 C 65 % 1017,9 hPa 0,0 l/m 0,0 km/h (0 Bft) N-NO 22 0 min 0,000 mm 0 W/m 5,8 C 12,2 C 3,2 km/h (1 Bft) 100 %
23.04.2014 22:50 12,0 C 12,0 C 12,2 C 67 % 1017,8 hPa 0,0 l/m 0,0 km/h (0 Bft) N-NO 22 0 min 0,000 mm 0 W/m 6,1 C 12,0 C 1,6 km/h (1 Bft) 99 %
23.04.2014 23:00 11,8 C 11,8 C 12,0 C 67 % 1017,8 hPa 0,0 l/m 0,0 km/h (0 Bft) N-NO 22 0 min 0,025 mm 0 W/m 5,9 C 11,8 C 1,6 km/h (1 Bft) 100 %
23.04.2014 23:10 11,6 C 11,6 C 11,8 C 67 % 1017,8 hPa 0,0 l/m 0,0 km/h (0 Bft) N-NO 22 0 min 0,000 mm 0 W/m 5,7 C 11,6 C 3,2 km/h (1 Bft) 99 %
23.04.2014 23:20 11,5 C 11,5 C 11,7 C 70 % 1017,8 hPa 0,0 l/m 0,0 km/h (0 Bft) N-NO 22 0 min 0,000 mm 0 W/m 6,2 C 11,5 C 1,6 km/h (1 Bft) 100 %
23.04.2014 23:30 11,2 C 11,2 C 11,5 C 71 % 1017,9 hPa 0,0 l/m 0,0 km/h (0 Bft) N-NO 22 0 min 0,000 mm 0 W/m 6,1 C 11,2 C 1,6 km/h (1 Bft) 100 %
23.04.2014 23:40 10,9 C 10,9 C 11,2 C 72 % 1017,8 hPa 0,0 l/m 0,0 km/h (0 Bft) N-NO 22 0 min 0,000 mm 0 W/m 6,1 C 10,9 C 1,6 km/h (1 Bft) 100 %
23.04.2014 23:50 10,7 C 10,7 C 10,9 C 73 % 1017,8 hPa 0,0 l/m 0,0 km/h (0 Bft) N-NO 22 0 min 0,000 mm 0 W/m 6,1 C 10,7 C 3,2 km/h (1 Bft) 100 %
_ Min-Zeit 06:10 06:10 06:10 17:20 00:00 - 00:00 - - - - - 06:10 06:10 00:30 14:00
Minimum _ 4,9 C 4,9 C 5,0 C 38 % 1015,5 hPa - 0,0 km/h (0 Bft) - - - - - 2,9 C 4,9 C 0,0 km/h (0 Bft) 88 %
_ Max-Zeit 16:10 17:30 16:10 02:10 09:40 00:00 12:30 - - 08:30 12:00 12:50 10:10 17:30 13:10 00:10
Maximum _ 22,7 C 22,6 C 22,7 C 87 % 1018,7 hPa 0,0 l/m 3,2 km/h
NO (1 Bft)
- - 10 min 0,356 mm 925 W/m 11,2 C 22,7 C 16,1 km/h
SO (3 Bft)
100 %
Durchschnitt _ 13,8 C 13,7 C 14,0 C 66 % 1017,4 hPa #0,0 l/m 0,4 km/h (0 Bft) NW - #8:40 h #2,819 mm 391 W/m 6,8 C 13,8 C 3,6 km/h (1 Bft) 99 %
PRIVATE WETTERSTATION BILLIGHEIM-ALLFELD - www.neckar-odenwald-wetter.de - Holger Sonntag